createdAt,value
2023-09-26T00:07:37.733Z,21.44
2023-09-26T00:10:13.425Z,21.40
2023-09-26T00:12:47.040Z,21.37
2023-09-26T00:15:21.989Z,21.31
2023-09-26T00:18:01.062Z,21.26
2023-09-26T00:20:38.977Z,21.25
2023-09-26T00:23:13.702Z,21.21
2023-09-26T00:25:47.302Z,21.18
2023-09-26T00:28:20.265Z,21.17
2023-09-26T00:30:53.816Z,21.18
2023-09-26T00:33:27.083Z,21.18
2023-09-26T00:36:03.078Z,21.17
2023-09-26T00:38:40.785Z,21.15
2023-09-26T00:41:14.212Z,21.16
2023-09-26T00:43:48.039Z,21.12
2023-09-26T00:46:22.299Z,21.08
2023-09-26T00:48:55.659Z,21.04
2023-09-26T00:51:28.765Z,21.01
2023-09-26T00:54:03.913Z,20.99
2023-09-26T00:56:36.276Z,20.99
2023-09-26T00:59:11.164Z,20.97
2023-09-26T01:01:51.047Z,20.93
2023-09-26T01:04:26.974Z,20.92
2023-09-26T01:06:59.729Z,20.94
2023-09-26T01:09:34.014Z,20.92
2023-09-26T01:12:07.054Z,20.91
2023-09-26T01:14:42.083Z,20.89
2023-09-26T01:17:15.790Z,20.87
2023-09-26T01:19:48.544Z,20.85
2023-09-26T01:22:25.187Z,20.85
2023-09-26T01:24:59.396Z,20.85
2023-09-26T01:27:32.267Z,20.83
2023-09-26T01:30:08.580Z,20.84
2023-09-26T01:32:42.656Z,20.85
2023-09-26T01:35:20.943Z,20.84
2023-09-26T01:37:53.457Z,20.85
2023-09-26T01:40:26.601Z,20.86
2023-09-26T01:42:59.499Z,20.85
2023-09-26T01:45:35.637Z,20.83
2023-09-26T01:48:11.985Z,20.83
2023-09-26T01:50:45.896Z,20.82
2023-09-26T01:53:19.969Z,20.83
2023-09-26T01:55:53.385Z,20.83
2023-09-26T01:58:26.102Z,20.84
2023-09-26T02:00:58.707Z,20.84
2023-09-26T02:03:31.593Z,20.83
2023-09-26T02:06:04.514Z,20.84
2023-09-26T02:45:58.909Z,20.84
2023-09-26T02:48:31.554Z,20.88
2023-09-26T02:51:07.688Z,20.92
2023-09-26T02:53:40.211Z,20.94
2023-09-26T02:56:15.595Z,20.94
2023-09-26T02:58:50.732Z,20.94
2023-09-26T03:01:23.786Z,20.93
2023-09-26T03:03:56.946Z,20.92
2023-09-26T03:06:29.643Z,20.91
2023-09-26T03:09:02.343Z,20.92
2023-09-26T03:11:35.215Z,20.93
2023-09-26T03:14:08.122Z,20.91
2023-09-26T03:16:41.317Z,20.89
2023-09-26T03:19:16.236Z,20.89
2023-09-26T03:21:51.058Z,20.89
2023-09-26T03:24:25.646Z,20.88
2023-09-26T03:26:59.539Z,20.89
2023-09-26T03:29:32.293Z,20.86
2023-09-26T03:32:05.324Z,20.83
2023-09-26T03:34:40.117Z,20.82
2023-09-26T03:37:13.233Z,20.83
2023-09-26T03:39:49.216Z,20.82
2023-09-26T03:42:21.772Z,20.82
2023-09-26T03:44:57.282Z,20.81
2023-09-26T03:48:01.050Z,20.79
2023-09-26T03:50:56.507Z,20.77
2023-09-26T03:53:31.654Z,20.77
2023-09-26T03:56:07.658Z,20.77
2023-09-26T03:58:47.818Z,20.74
2023-09-26T04:01:21.155Z,20.73
2023-09-26T04:03:55.478Z,20.71
2023-09-26T04:06:36.040Z,20.79
2023-09-26T04:09:10.305Z,21.04
2023-09-26T04:11:43.494Z,21.27
2023-09-26T04:14:19.329Z,21.47
2023-09-26T04:16:59.416Z,21.63
2023-09-26T04:19:35.796Z,21.76
2023-09-26T04:22:08.798Z,21.71
2023-09-26T04:24:42.482Z,21.63
2023-09-26T04:27:19.199Z,21.55
2023-09-26T04:29:53.983Z,21.44
2023-09-26T04:32:32.602Z,21.35
2023-09-26T04:35:05.761Z,21.29
2023-09-26T04:37:38.661Z,21.23
2023-09-26T04:40:15.076Z,21.17
2023-09-26T04:42:53.917Z,21.11
2023-09-26T04:45:32.769Z,21.07
2023-09-26T04:48:10.365Z,21.03
2023-09-26T04:50:43.073Z,21.04
2023-09-26T04:53:17.782Z,21.02
2023-09-26T04:55:51.241Z,21.00
2023-09-26T04:58:24.589Z,20.99
2023-09-26T05:00:57.985Z,20.98
2023-09-26T05:03:31.724Z,20.99
2023-09-26T05:06:04.418Z,21.00
2023-09-26T05:08:37.766Z,21.01
2023-09-26T05:11:17.453Z,21.04
2023-09-26T05:13:55.393Z,21.04
2023-09-26T05:16:28.869Z,21.03
2023-09-26T05:19:01.421Z,21.04
2023-09-26T05:21:34.455Z,21.05
2023-09-26T05:24:10.369Z,21.08
2023-09-26T05:26:43.913Z,21.11
2023-09-26T05:29:17.819Z,21.14
2023-09-26T05:31:51.737Z,21.18
2023-09-26T05:34:25.032Z,21.22
2023-09-26T05:36:57.823Z,21.24
2023-09-26T05:39:30.857Z,21.26
2023-09-26T05:42:03.813Z,21.28
2023-09-26T05:44:36.717Z,21.30
2023-09-26T05:47:10.858Z,21.32
2023-09-26T05:49:43.928Z,21.35
2023-09-26T05:52:18.184Z,21.36
2023-09-26T05:54:51.560Z,21.41
2023-09-26T05:57:24.418Z,21.48
2023-09-26T05:59:57.608Z,21.53
2023-09-26T06:02:33.415Z,21.56
2023-09-26T06:05:07.298Z,21.60
2023-09-26T06:07:40.399Z,21.64
2023-09-26T06:10:14.459Z,21.67
2023-09-26T06:12:50.333Z,21.71
2023-09-26T06:15:23.245Z,21.75
2023-09-26T06:18:00.953Z,21.80
2023-09-26T06:20:35.883Z,21.86
2023-09-26T06:23:10.256Z,21.91
2023-09-26T06:25:55.948Z,21.97
2023-09-26T06:28:29.741Z,22.03
2023-09-26T06:31:08.016Z,22.09
2023-09-26T06:33:43.130Z,22.15
2023-09-26T06:36:25.594Z,22.22
2023-09-26T06:39:05.855Z,22.29
2023-09-26T06:41:39.623Z,22.35
2023-09-26T06:44:12.812Z,22.41
2023-09-26T06:46:49.461Z,22.47
2023-09-26T06:49:22.045Z,22.52
2023-09-26T06:51:54.860Z,22.58
2023-09-26T06:54:27.464Z,22.62
2023-09-26T06:57:00.572Z,22.69
2023-09-26T06:59:34.000Z,22.73
2023-09-26T07:02:08.131Z,22.78
2023-09-26T07:04:40.889Z,22.81
2023-09-26T07:07:19.283Z,22.86
2023-09-26T07:09:51.900Z,22.92
2023-09-26T07:12:27.475Z,22.98
2023-09-26T07:15:02.640Z,23.04
2023-09-26T07:17:37.135Z,23.08
2023-09-26T07:20:16.084Z,23.14
2023-09-26T07:22:57.060Z,23.18
2023-09-26T07:25:36.405Z,23.23
2023-09-26T07:28:10.574Z,23.27
2023-09-26T07:30:44.079Z,23.31
2023-09-26T07:33:18.389Z,23.35
2023-09-26T07:36:02.252Z,23.40
2023-09-26T07:38:45.995Z,23.47
2023-09-26T07:41:18.890Z,23.53
2023-09-26T07:43:52.351Z,23.57
2023-09-26T07:46:25.961Z,23.62
2023-09-26T07:48:59.166Z,23.66
2023-09-26T07:51:43.368Z,23.70
2023-09-26T07:54:17.958Z,23.76
2023-09-26T07:56:50.546Z,23.80
2023-09-26T07:59:24.121Z,23.84
2023-09-26T08:01:56.942Z,23.89
2023-09-26T08:04:29.734Z,23.94
2023-09-26T08:07:03.380Z,23.99
2023-09-26T08:09:36.380Z,24.04
2023-09-26T08:12:11.108Z,24.08
2023-09-26T08:14:43.708Z,24.13
2023-09-26T08:17:19.262Z,24.18
2023-09-26T08:19:52.235Z,24.23
2023-09-26T08:22:26.558Z,24.27
2023-09-26T08:24:59.011Z,24.33
2023-09-26T08:27:33.416Z,24.37
2023-09-26T08:30:09.185Z,24.42
2023-09-26T08:32:42.714Z,24.48
2023-09-26T08:35:20.336Z,24.53
2023-09-26T08:37:54.699Z,24.58
2023-09-26T08:40:29.807Z,24.62
2023-09-26T08:43:09.187Z,24.68
2023-09-26T08:45:42.789Z,24.75
2023-09-26T08:48:17.507Z,24.81
2023-09-26T08:50:50.596Z,24.85
2023-09-26T08:53:38.164Z,24.89
2023-09-26T08:56:10.973Z,24.95
2023-09-26T08:58:45.824Z,25.00
2023-09-26T09:01:20.786Z,25.07
2023-09-26T09:03:53.727Z,25.11
2023-09-26T09:06:26.491Z,25.17
2023-09-26T09:09:11.712Z,25.23
2023-09-26T09:11:46.777Z,25.29
2023-09-26T09:14:35.277Z,25.33
2023-09-26T09:17:07.979Z,25.38
2023-09-26T09:19:51.340Z,25.43
2023-09-26T09:22:26.092Z,25.49
2023-09-26T09:24:59.888Z,25.53
2023-09-26T09:27:39.795Z,25.58
2023-09-26T09:30:16.902Z,25.63
2023-09-26T09:32:50.094Z,25.69
2023-09-26T09:35:24.114Z,25.75
2023-09-26T09:37:58.827Z,25.79
2023-09-26T09:40:32.498Z,25.84
2023-09-26T09:43:05.794Z,25.89
2023-09-26T09:45:40.200Z,25.94
2023-09-26T09:48:15.634Z,25.97
2023-09-26T09:50:53.862Z,26.02
2023-09-26T09:53:31.007Z,26.07
2023-09-26T09:56:07.795Z,26.11
2023-09-26T09:58:47.051Z,26.15
2023-09-26T10:01:25.711Z,26.19
2023-09-26T10:04:02.773Z,26.24
2023-09-26T10:06:35.784Z,26.29
2023-09-26T10:09:09.646Z,26.34
2023-09-26T10:11:42.440Z,26.39
2023-09-26T10:19:52.615Z,26.51
2023-09-26T10:22:37.039Z,26.56
2023-09-26T10:25:14.362Z,26.60
2023-09-26T10:28:01.068Z,26.63
2023-09-26T10:30:47.407Z,26.69
2023-09-26T10:36:20.281Z,26.81
2023-09-26T10:39:08.729Z,26.85
2023-09-26T10:42:01.201Z,26.89
2023-09-26T10:44:39.433Z,26.93
2023-09-26T10:47:17.909Z,26.95
2023-09-26T10:49:53.075Z,26.98
2023-09-26T10:52:33.545Z,27.03
2023-09-26T10:55:07.480Z,27.07
2023-09-26T10:57:41.639Z,27.11
2023-09-26T11:00:20.800Z,27.13
2023-09-26T11:02:58.237Z,27.16
2023-09-26T11:05:35.101Z,27.21
2023-09-26T11:08:12.729Z,27.26
2023-09-26T11:10:51.796Z,27.29
2023-09-26T11:13:26.563Z,27.34
2023-09-26T11:15:59.502Z,27.37
2023-09-26T11:18:33.054Z,27.42
2023-09-26T11:21:24.096Z,27.47
2023-09-26T11:24:00.698Z,27.53
2023-09-26T11:26:33.838Z,27.58
2023-09-26T11:29:07.185Z,27.60
2023-09-26T11:31:41.205Z,27.63
2023-09-26T11:34:13.956Z,27.68
2023-09-26T11:36:47.349Z,27.72
2023-09-26T11:39:22.103Z,27.77
2023-09-26T11:42:07.709Z,27.82
2023-09-26T11:44:53.001Z,27.86
2023-09-26T11:47:28.265Z,27.90
2023-09-26T11:50:01.443Z,27.96
2023-09-26T11:52:35.243Z,28.00
2023-09-26T11:55:10.402Z,28.04
2023-09-26T11:57:48.303Z,28.08
2023-09-26T12:00:25.670Z,28.13
2023-09-26T12:02:58.805Z,28.18
2023-09-26T12:05:31.890Z,28.24
2023-09-26T12:08:04.968Z,28.30
2023-09-26T12:10:43.523Z,28.35
2023-09-26T12:13:17.469Z,28.41
2023-09-26T12:15:50.233Z,28.47
2023-09-26T12:18:24.478Z,28.53
2023-09-26T12:20:57.327Z,28.61
2023-09-26T12:23:30.555Z,28.68
2023-09-26T12:26:03.863Z,28.77
2023-09-26T12:28:37.580Z,28.84
2023-09-26T12:31:10.093Z,28.92
2023-09-26T12:33:43.527Z,29.01
2023-09-26T12:36:19.520Z,29.08
2023-09-26T12:38:52.518Z,29.13
2023-09-26T12:41:28.003Z,29.19
2023-09-26T12:44:00.872Z,29.26
2023-09-26T12:46:33.887Z,29.36
2023-09-26T12:49:07.168Z,29.44
2023-09-26T12:51:40.146Z,29.53
2023-09-26T12:54:13.003Z,29.62
2023-09-26T12:56:45.470Z,29.71
2023-09-26T12:59:20.021Z,29.78
2023-09-26T13:01:53.547Z,29.86
2023-09-26T13:04:26.801Z,29.92
2023-09-26T13:06:59.395Z,29.95
2023-09-26T13:09:32.408Z,29.99
2023-09-26T13:12:05.597Z,30.05
2023-09-26T13:14:38.998Z,30.13
2023-09-26T13:17:14.397Z,30.19
2023-09-26T13:19:48.373Z,30.27
2023-09-26T13:22:21.650Z,30.34
2023-09-26T13:24:54.567Z,30.41
2023-09-26T13:27:27.202Z,30.51
2023-09-26T13:30:00.061Z,30.65
2023-09-26T13:32:32.870Z,30.76
2023-09-26T13:35:06.299Z,30.89
2023-09-26T13:37:40.017Z,31.03
2023-09-26T13:40:13.225Z,31.18
2023-09-26T13:42:46.432Z,31.36
2023-09-26T13:45:23.137Z,31.54
2023-09-26T13:47:56.836Z,31.73
2023-09-26T13:50:29.675Z,31.86
2023-09-26T13:53:02.792Z,32.00
2023-09-26T13:55:35.272Z,32.12
2023-09-26T13:58:08.506Z,32.29
2023-09-26T14:00:41.053Z,32.47
2023-09-26T14:03:13.591Z,32.69
2023-09-26T14:05:47.073Z,32.77
2023-09-26T14:08:21.183Z,32.82
2023-09-26T14:10:54.719Z,32.89
2023-09-26T14:13:31.212Z,33.00
2023-09-26T14:16:06.506Z,33.14
2023-09-26T14:18:45.092Z,33.30
2023-09-26T14:21:24.700Z,33.42
2023-09-26T14:24:09.211Z,33.51
2023-09-26T14:26:48.362Z,33.66
2023-09-26T14:29:34.188Z,33.84
2023-09-26T14:32:09.397Z,33.91
2023-09-26T14:34:47.031Z,33.93
2023-09-26T14:37:22.765Z,33.91
2023-09-26T14:40:00.942Z,33.75
2023-09-26T14:42:44.777Z,33.59
2023-09-26T14:45:21.601Z,33.62
2023-09-26T14:47:55.278Z,33.67
2023-09-26T14:50:27.994Z,33.71
2023-09-26T14:53:06.127Z,33.74
2023-09-26T14:55:40.739Z,33.69
2023-09-26T14:58:14.738Z,33.62
2023-09-26T15:00:58.488Z,33.60
2023-09-26T15:03:37.130Z,33.56
2023-09-26T15:06:13.164Z,33.43
2023-09-26T15:08:49.416Z,33.30
2023-09-26T15:11:22.586Z,33.17
2023-09-26T15:13:55.759Z,33.06
2023-09-26T15:16:28.754Z,32.86
2023-09-26T15:19:02.634Z,32.60
2023-09-26T15:21:35.465Z,32.31
2023-09-26T15:24:09.413Z,32.04
2023-09-26T15:26:42.941Z,31.78
2023-09-26T15:29:17.260Z,31.51
2023-09-26T15:31:51.390Z,31.30
2023-09-26T15:34:26.305Z,31.14
2023-09-26T15:37:00.583Z,31.01
2023-09-26T15:39:39.638Z,30.84
2023-09-26T15:42:12.384Z,30.68
2023-09-26T15:44:45.328Z,30.56
2023-09-26T15:47:19.711Z,30.40
2023-09-26T15:50:04.393Z,30.22
2023-09-26T15:52:47.718Z,30.03
2023-09-26T15:55:25.918Z,29.87
2023-09-26T15:58:02.309Z,29.72
2023-09-26T16:00:40.246Z,29.55
2023-09-26T16:03:13.225Z,29.39
2023-09-26T16:12:15.259Z,28.89
2023-09-26T16:14:49.051Z,28.77
2023-09-26T16:17:26.154Z,28.65
2023-09-26T16:19:59.241Z,28.53
2023-09-26T16:22:32.086Z,28.41
2023-09-26T16:25:08.308Z,28.30
2023-09-26T16:27:58.549Z,28.21
2023-09-26T16:30:38.621Z,28.10
2023-09-26T16:33:26.478Z,27.98
2023-09-26T16:36:10.126Z,27.88
2023-09-26T16:41:45.096Z,27.72
2023-09-26T16:44:39.942Z,27.62
2023-09-26T16:47:13.134Z,27.55
2023-09-26T16:49:45.898Z,27.50
2023-09-26T16:52:24.950Z,27.42
2023-09-26T16:54:58.152Z,27.36
2023-09-26T16:57:31.270Z,27.29
2023-09-26T17:00:06.078Z,27.22
2023-09-26T17:02:38.895Z,27.13
2023-09-26T17:05:13.984Z,27.05
2023-09-26T17:07:48.200Z,26.97
2023-09-26T17:10:22.629Z,26.91
2023-09-26T17:12:58.599Z,26.81
2023-09-26T17:15:32.864Z,26.72
2023-09-26T17:18:06.877Z,26.64
2023-09-26T17:20:39.810Z,26.58
2023-09-26T17:23:12.531Z,26.51
2023-09-26T17:25:48.385Z,26.46
2023-09-26T17:28:22.438Z,26.40
2023-09-26T17:30:59.803Z,26.33
2023-09-26T17:33:37.051Z,26.26
2023-09-26T17:36:10.299Z,26.19
2023-09-26T17:38:47.522Z,26.13
2023-09-26T17:41:29.459Z,26.06
2023-09-26T17:44:02.239Z,25.98
2023-09-26T17:46:46.668Z,25.92
2023-09-26T17:49:20.228Z,25.87
2023-09-26T17:51:59.576Z,25.84
2023-09-26T17:54:32.503Z,25.77
2023-09-26T17:57:07.853Z,25.73
2023-09-26T17:59:40.628Z,25.69
2023-09-26T18:02:13.365Z,25.65
2023-09-26T18:04:48.667Z,25.60
2023-09-26T18:07:22.758Z,25.56
2023-09-26T18:09:58.715Z,25.52
2023-09-26T18:12:31.631Z,25.47
2023-09-26T18:15:06.757Z,25.42
2023-09-26T18:17:40.081Z,25.37
2023-09-26T18:20:14.852Z,25.31
2023-09-26T18:22:48.083Z,25.27
2023-09-26T18:28:32.887Z,25.19
2023-09-26T18:31:06.726Z,25.15
2023-09-26T18:33:39.353Z,25.10
2023-09-26T18:36:12.140Z,25.07
2023-09-26T18:38:44.830Z,25.03
2023-09-26T18:41:19.446Z,25.01
2023-09-26T18:43:56.299Z,24.96
2023-09-26T18:46:29.285Z,24.91
2023-09-26T18:49:02.362Z,24.88
2023-09-26T18:51:45.782Z,24.85
2023-09-26T18:54:18.723Z,24.79
2023-09-26T18:56:57.208Z,24.75
2023-09-26T18:59:34.197Z,24.72
2023-09-26T19:02:11.362Z,24.68
2023-09-26T19:05:16.520Z,24.65
2023-09-26T19:08:01.983Z,24.75
2023-09-26T19:10:41.774Z,24.78
2023-09-26T19:13:18.257Z,24.72
2023-09-26T19:15:59.055Z,24.63
2023-09-26T19:19:02.035Z,24.57
2023-09-26T19:21:39.616Z,24.53
2023-09-26T19:24:13.206Z,24.48
2023-09-26T19:26:46.792Z,24.43
2023-09-26T19:29:21.545Z,24.40
2023-09-26T19:32:01.204Z,24.36
2023-09-26T19:34:37.744Z,24.30
2023-09-26T19:37:10.456Z,24.25
2023-09-26T19:39:43.021Z,24.20
2023-09-26T19:42:16.452Z,24.14
2023-09-26T19:44:52.512Z,24.11
2023-09-26T19:47:26.243Z,24.08
2023-09-26T19:49:59.779Z,24.05
2023-09-26T19:52:33.723Z,24.02
2023-09-26T19:55:08.636Z,24.01
2023-09-26T19:57:53.193Z,23.99
2023-09-26T20:00:27.969Z,23.98
2023-09-26T20:03:00.497Z,23.96
2023-09-26T20:05:34.189Z,23.92
2023-09-26T20:08:07.525Z,23.82
2023-09-26T20:10:40.441Z,23.79
2023-09-26T20:13:13.646Z,23.75
2023-09-26T20:15:53.081Z,23.67
2023-09-26T20:18:26.407Z,23.58
2023-09-26T20:20:59.292Z,23.45
2023-09-26T20:23:31.949Z,23.35
2023-09-26T20:26:05.561Z,23.28
2023-09-26T20:28:39.824Z,23.22
2023-09-26T20:31:18.203Z,23.14
2023-09-26T20:33:55.053Z,23.09
2023-09-26T20:36:29.773Z,23.07
2023-09-26T20:39:03.298Z,23.15
2023-09-26T20:41:41.483Z,23.26
2023-09-26T20:44:14.513Z,23.33
2023-09-26T20:46:48.043Z,23.38
2023-09-26T20:49:24.835Z,23.43
2023-09-26T20:52:00.724Z,23.48
2023-09-26T20:54:36.665Z,23.52
2023-09-26T20:57:11.619Z,23.54
2023-09-26T20:59:46.421Z,23.61
2023-09-26T21:02:19.500Z,23.67
2023-09-26T21:04:59.494Z,23.68
2023-09-26T21:07:33.930Z,23.70
2023-09-26T21:10:07.971Z,23.73
2023-09-26T21:12:41.478Z,23.74
2023-09-26T21:15:15.337Z,23.75
2023-09-26T21:17:48.628Z,23.76
2023-09-26T21:20:27.485Z,23.74
2023-09-26T21:23:03.811Z,23.74
2023-09-26T21:25:40.802Z,23.70
2023-09-26T21:28:14.723Z,23.69
2023-09-26T21:30:48.311Z,23.69
2023-09-26T21:33:21.569Z,23.70
2023-09-26T21:36:00.333Z,23.69
2023-09-26T21:38:33.258Z,23.68
2023-09-26T21:41:10.246Z,23.65
2023-09-26T21:43:43.869Z,23.58
2023-09-26T21:46:21.852Z,23.57
2023-09-26T21:48:55.643Z,23.57
2023-09-26T21:51:30.796Z,23.58
2023-09-26T21:54:04.549Z,23.61
2023-09-26T21:56:39.643Z,23.63
2023-09-26T21:59:15.935Z,23.60
2023-09-26T22:01:50.292Z,23.56
2023-09-26T22:04:24.305Z,23.56
2023-09-26T22:06:58.643Z,23.60
2023-09-26T22:09:32.020Z,23.60
2023-09-26T22:12:06.323Z,23.63
2023-09-26T22:14:51.190Z,23.64
2023-09-26T22:17:28.134Z,23.63
2023-09-26T22:20:06.751Z,23.65
2023-09-26T22:22:44.477Z,23.61
2023-09-26T22:25:31.186Z,23.56
2023-09-26T22:28:11.250Z,23.56
2023-09-26T22:30:51.103Z,23.52
2023-09-26T22:33:27.858Z,23.48
2023-09-26T22:36:02.289Z,23.43
2023-09-26T22:38:37.385Z,23.41
2023-09-26T22:41:12.380Z,23.37
2023-09-26T22:43:46.839Z,23.33
2023-09-26T22:46:22.469Z,23.35
2023-09-26T22:48:56.198Z,23.31
2023-09-26T22:51:31.399Z,23.31
2023-09-26T22:54:06.071Z,23.33
2023-09-26T22:56:51.751Z,23.33
2023-09-26T22:59:28.030Z,23.30
2023-09-26T23:02:09.775Z,23.30
2023-09-26T23:04:54.425Z,23.30
2023-09-26T23:07:27.273Z,23.31
2023-09-26T23:10:04.792Z,23.34
2023-09-26T23:12:40.753Z,23.37
2023-09-26T23:15:18.206Z,23.39
2023-09-26T23:17:52.429Z,23.36
2023-09-26T23:20:27.892Z,23.35
2023-09-26T23:23:01.181Z,23.39
2023-09-26T23:25:36.557Z,23.38
2023-09-26T23:28:11.224Z,23.41
2023-09-26T23:30:56.164Z,23.42
2023-09-26T23:33:36.060Z,23.40
2023-09-26T23:36:13.763Z,23.42
2023-09-26T23:38:48.159Z,23.44
2023-09-26T23:41:26.417Z,23.45
2023-09-26T23:44:00.948Z,23.49
2023-09-26T23:46:35.658Z,23.53
2023-09-26T23:49:09.647Z,23.55
